Ellendale, Tennessee
Current Conditions -  °F | °C
As of 6:50 AM on Wednesday 22 Oct 2014 (Local Time) from KNQA Reporting Station
Clear Clear  
Wind Chill: 44°   Ceiling: Unl
Heat Index: 46°   Visibility: 10mi
Dew Point: 45°   Wind: 5mph
Humidity: 93%   Direction: 30°NNE
Pressure: 30.22"   Gusts: NA
Location:  35.23°N, 89.83°W
Report Text: KNQA 221150Z 03004KT 10SM SKC 08/07 A3022
Loading
Personal Weather Stations






























Interactive Weather Map
Tropical Storm Tracking
New forecast layout! Learn more

10-Day Weather Forecast

Advertisements
Track Severe Weather on mobile